createdAt,value
2023-06-04T00:02:14.804Z,101570.75
2023-06-04T00:04:41.432Z,101564.59
2023-06-04T00:07:07.901Z,101563.69
2023-06-04T00:09:34.281Z,101561.00
2023-06-04T00:12:00.876Z,101558.50
2023-06-04T00:14:27.399Z,101558.38
2023-06-04T00:16:53.821Z,101559.97
2023-06-04T00:19:20.312Z,101555.59
2023-06-04T00:21:47.063Z,101548.69
2023-06-04T00:24:14.031Z,101554.50
2023-06-04T00:26:41.101Z,101549.31
2023-06-04T00:29:07.624Z,101542.44
2023-06-04T00:31:34.149Z,101541.50
2023-06-04T00:34:00.598Z,101540.63
2023-06-04T00:36:26.987Z,101533.66
2023-06-04T00:38:53.518Z,101535.28
2023-06-04T00:41:19.904Z,101537.69
2023-06-04T00:43:46.279Z,101534.22
2023-06-04T00:46:13.393Z,101539.13
2023-06-04T00:48:39.684Z,101535.16
2023-06-04T00:51:06.899Z,101542.81
2023-06-04T00:53:33.680Z,101542.56
2023-06-04T00:56:00.099Z,101539.03
2023-06-04T00:58:26.632Z,101545.59
2023-06-04T01:00:57.474Z,101546.41
2023-06-04T01:03:29.163Z,101547.97
2023-06-04T01:06:03.045Z,101546.19
2023-06-04T01:08:30.389Z,101546.13
2023-06-04T01:10:57.330Z,101540.09
2023-06-04T01:13:25.914Z,101543.47
2023-06-04T01:15:52.332Z,101545.81
2023-06-04T01:18:28.298Z,101536.38
2023-06-04T01:21:02.831Z,101543.03
2023-06-04T01:23:49.816Z,101538.75
2023-06-04T01:26:16.476Z,101545.41
2023-06-04T01:28:45.876Z,101545.28
2023-06-04T01:31:12.499Z,101541.91
2023-06-04T01:33:39.046Z,101546.81
2023-06-04T01:36:05.491Z,101545.06
2023-06-04T01:38:31.887Z,101543.41
2023-06-04T01:40:58.367Z,101541.47
2023-06-04T01:43:24.776Z,101536.47
2023-06-04T01:45:51.258Z,101542.25
2023-06-04T01:48:17.659Z,101533.59
2023-06-04T01:50:44.096Z,101533.56
2023-06-04T01:53:10.474Z,101534.25
2023-06-04T01:55:36.844Z,101535.09
2023-06-04T01:58:03.264Z,101530.84
2023-06-04T02:00:30.164Z,101528.22
2023-06-04T02:02:56.638Z,101524.47
2023-06-04T02:05:23.139Z,101529.53
2023-06-04T02:07:49.517Z,101528.59
2023-06-04T02:10:18.701Z,101528.50
2023-06-04T02:12:59.447Z,101521.59
2023-06-04T02:15:27.941Z,101521.41
2023-06-04T02:17:57.780Z,101521.25
2023-06-04T02:20:24.157Z,101521.94
2023-06-04T02:22:50.601Z,101523.16
2023-06-04T02:25:16.994Z,101521.22
2023-06-04T02:27:43.423Z,101523.56
2023-06-04T02:30:10.437Z,101519.06
2023-06-04T02:32:36.932Z,101520.66
2023-06-04T02:35:04.543Z,101517.94
2023-06-04T02:37:30.976Z,101525.47
2023-06-04T02:39:57.337Z,101526.19
2023-06-04T02:42:23.700Z,101527.94
2023-06-04T02:44:50.068Z,101519.31
2023-06-04T02:47:16.454Z,101525.09
2023-06-04T02:49:43.259Z,101529.25
2023-06-04T02:52:09.765Z,101531.94
2023-06-04T02:54:36.135Z,101531.06
2023-06-04T02:57:02.641Z,101525.97
2023-06-04T02:59:29.027Z,101533.38
2023-06-04T03:01:55.604Z,101529.00
2023-06-04T03:04:22.291Z,101529.84
2023-06-04T03:06:48.697Z,101526.47
2023-06-04T03:09:15.061Z,101526.38
2023-06-04T03:11:41.678Z,101528.00
2023-06-04T03:14:08.114Z,101527.81
2023-06-04T03:16:34.585Z,101533.78
2023-06-04T03:19:01.061Z,101532.06
2023-06-04T03:21:28.727Z,101528.75
2023-06-04T03:23:55.207Z,101528.69
2023-06-04T03:26:21.591Z,101525.28
2023-06-04T03:28:48.050Z,101525.41
2023-06-04T03:31:14.496Z,101524.50
2023-06-04T03:33:40.890Z,101524.59
2023-06-04T03:36:07.266Z,101523.06
2023-06-04T03:38:33.669Z,101524.00
2023-06-04T03:41:00.033Z,101531.78
2023-06-04T03:43:26.421Z,101532.75
2023-06-04T03:45:52.897Z,101525.19
2023-06-04T03:48:19.263Z,101527.06
2023-06-04T03:50:45.771Z,101533.06
2023-06-04T03:53:12.395Z,101530.56
2023-06-04T03:55:38.998Z,101529.78
2023-06-04T03:58:05.416Z,101533.19
2023-06-04T04:00:31.809Z,101537.56
2023-06-04T04:02:58.298Z,101533.44
2023-06-04T04:05:24.771Z,101536.88
2023-06-04T04:07:51.255Z,101537.94
2023-06-04T04:10:17.697Z,101544.25
2023-06-04T04:12:44.237Z,101537.47
2023-06-04T04:15:10.792Z,101546.03
2023-06-04T04:17:37.195Z,101536.81
2023-06-04T04:20:03.721Z,101541.25
2023-06-04T04:22:30.090Z,101549.94
2023-06-04T04:24:56.466Z,101548.31
2023-06-04T04:27:22.874Z,101545.13
2023-06-04T04:29:49.299Z,101551.25
2023-06-04T04:32:15.724Z,101547.16
2023-06-04T04:34:52.286Z,101548.25
2023-06-04T04:37:18.681Z,101549.34
2023-06-04T04:39:45.041Z,101550.41
2023-06-04T04:42:11.542Z,101546.31
2023-06-04T04:44:37.927Z,101547.41
2023-06-04T04:47:04.604Z,101545.94
2023-06-04T04:49:31.050Z,101536.84
2023-06-04T04:51:57.447Z,101543.03
2023-06-04T04:54:23.813Z,101545.81
2023-06-04T04:56:55.894Z,101543.53
2023-06-04T04:59:31.542Z,101546.44
2023-06-04T05:01:57.954Z,101546.84
2023-06-04T05:04:24.390Z,101548.75
2023-06-04T05:06:50.882Z,101554.97
2023-06-04T05:09:17.354Z,101551.72
2023-06-04T05:11:43.820Z,101556.16
2023-06-04T05:14:10.184Z,101559.81
2023-06-04T05:16:36.647Z,101553.28
2023-06-04T05:19:03.122Z,101556.31
2023-06-04T05:21:29.528Z,101553.13
2023-06-04T05:23:56.302Z,101550.84
2023-06-04T05:26:22.745Z,101552.00
2023-06-04T05:28:49.347Z,101550.66
2023-06-04T05:31:15.926Z,101550.00
2023-06-04T05:33:42.558Z,101549.25
2023-06-04T05:36:08.944Z,101554.56
2023-06-04T05:38:35.525Z,101551.19
2023-06-04T05:41:02.847Z,101554.69
2023-06-04T05:43:29.243Z,101559.25
2023-06-04T05:45:55.792Z,101563.78
2023-06-04T05:48:22.320Z,101566.59
2023-06-04T05:50:48.662Z,101567.56
2023-06-04T05:53:15.094Z,101564.31
2023-06-04T05:55:41.513Z,101559.47
2023-06-04T05:58:08.025Z,101571.66
2023-06-04T06:00:34.510Z,101564.06
2023-06-04T06:03:01.722Z,101570.94
2023-06-04T06:05:28.197Z,101565.06
2023-06-04T06:07:54.704Z,101571.13
2023-06-04T06:10:21.144Z,101565.16
2023-06-04T06:12:47.589Z,101565.34
2023-06-04T06:15:14.020Z,101564.66
2023-06-04T06:17:40.514Z,101572.41
2023-06-04T06:20:07.551Z,101574.13
2023-06-04T06:22:34.001Z,101576.78
2023-06-04T06:25:00.472Z,101570.78
2023-06-04T06:27:26.877Z,101581.06
2023-06-04T06:29:53.278Z,101579.38
2023-06-04T06:32:19.669Z,101580.22
2023-06-04T06:34:46.073Z,101574.22
2023-06-04T06:37:12.453Z,101585.38
2023-06-04T06:39:38.842Z,101577.63
2023-06-04T06:42:05.556Z,101581.88
2023-06-04T06:44:32.056Z,101584.41
2023-06-04T06:46:58.533Z,101582.66
2023-06-04T06:49:25.068Z,101583.50
2023-06-04T06:51:51.453Z,101591.22
2023-06-04T06:54:17.878Z,101589.47
2023-06-04T06:56:44.264Z,101581.72
2023-06-04T06:59:10.680Z,101582.53
2023-06-04T07:01:37.229Z,101584.16
2023-06-04T07:04:03.744Z,101578.16
2023-06-04T07:06:30.211Z,101583.19
2023-06-04T07:08:56.608Z,101576.16
2023-06-04T07:11:23.036Z,101583.03
2023-06-04T07:13:49.416Z,101582.09
2023-06-04T07:16:16.002Z,101569.84
2023-06-04T07:18:42.488Z,101584.56
2023-06-04T07:21:09.124Z,101587.88
2023-06-04T07:23:35.732Z,101579.03
2023-06-04T07:26:02.391Z,101580.63
2023-06-04T07:28:28.801Z,101585.81
2023-06-04T07:30:55.206Z,101583.16
2023-06-04T07:33:21.615Z,101584.91
2023-06-04T07:35:48.047Z,101586.47
2023-06-04T07:38:14.475Z,101586.44
2023-06-04T07:40:40.854Z,101582.88
2023-06-04T07:43:07.278Z,101588.91
2023-06-04T07:45:35.879Z,101592.03
2023-06-04T07:48:02.881Z,101591.81
2023-06-04T07:50:29.462Z,101589.00
2023-06-04T07:52:55.814Z,101588.78
2023-06-04T07:55:23.292Z,101592.13
2023-06-04T07:57:49.711Z,101591.97
2023-06-04T08:00:16.715Z,101584.91
2023-06-04T08:02:43.176Z,101581.53
2023-06-04T08:05:09.681Z,101580.44
2023-06-04T08:07:36.252Z,101577.91
2023-06-04T08:10:02.663Z,101577.81
2023-06-04T08:12:29.123Z,101578.16
2023-06-04T08:14:55.515Z,101582.00
2023-06-04T08:17:21.923Z,101589.56
2023-06-04T08:19:48.354Z,101584.19
2023-06-04T08:22:14.817Z,101585.41
2023-06-04T08:24:41.487Z,101588.00
2023-06-04T08:27:07.873Z,101586.56
2023-06-04T08:29:34.319Z,101586.38
2023-06-04T08:32:00.873Z,101585.44
2023-06-04T08:34:27.317Z,101587.59
2023-06-04T08:36:53.749Z,101579.66
2023-06-04T08:39:20.235Z,101577.41
2023-06-04T08:41:57.594Z,101576.59
2023-06-04T08:44:24.010Z,101580.84
2023-06-04T08:46:52.762Z,101581.13
2023-06-04T08:49:19.808Z,101582.47
2023-06-04T08:51:46.223Z,101575.69
2023-06-04T08:54:12.709Z,101585.28
2023-06-04T08:56:39.140Z,101581.19
2023-06-04T08:59:07.388Z,101585.75
2023-06-04T09:01:34.853Z,101585.47
2023-06-04T09:04:05.071Z,101584.03
2023-06-04T09:06:36.823Z,101587.16
2023-06-04T09:09:05.709Z,101592.28
2023-06-04T09:11:40.301Z,101589.59
2023-06-04T09:14:09.130Z,101587.97
2023-06-04T09:16:49.542Z,101582.97
2023-06-04T09:19:17.855Z,101579.31
2023-06-04T09:21:56.140Z,101576.97
2023-06-04T09:24:25.088Z,101588.75
2023-06-04T09:26:52.081Z,101588.66
2023-06-04T09:29:19.099Z,101590.28
2023-06-04T09:31:46.755Z,101582.50
2023-06-04T09:34:13.557Z,101585.28
2023-06-04T09:36:39.939Z,101591.78
2023-06-04T09:39:19.060Z,101581.88
2023-06-04T09:41:45.560Z,101578.31
2023-06-04T09:44:11.981Z,101586.28
2023-06-04T09:46:38.404Z,101584.13
2023-06-04T09:49:06.909Z,101583.72
2023-06-04T09:51:33.877Z,101592.13
2023-06-04T09:54:03.631Z,101584.13
2023-06-04T09:56:30.399Z,101584.00
2023-06-04T09:59:01.346Z,101587.34
2023-06-04T10:01:29.434Z,101582.56
2023-06-04T10:03:58.779Z,101586.94
2023-06-04T10:06:27.651Z,101580.16
2023-06-04T10:08:58.269Z,101570.13
2023-06-04T10:11:34.904Z,101578.78
2023-06-04T10:14:04.749Z,101575.75
2023-06-04T10:16:34.874Z,101572.75
2023-06-04T10:19:01.853Z,101571.28
2023-06-04T10:21:28.858Z,101571.16
2023-06-04T10:23:55.718Z,101570.53
2023-06-04T10:26:22.487Z,101567.00
2023-06-04T10:28:49.302Z,101571.97
2023-06-04T10:31:16.960Z,101571.19
2023-06-04T10:33:43.425Z,101560.03
2023-06-04T10:36:20.790Z,101572.41
2023-06-04T10:38:49.039Z,101569.97
2023-06-04T10:41:16.600Z,101565.06
2023-06-04T10:43:47.251Z,101561.56
2023-06-04T10:46:14.962Z,101567.72
2023-06-04T10:48:52.261Z,101565.56
2023-06-04T10:51:34.702Z,101567.16
2023-06-04T10:54:02.827Z,101558.16
2023-06-04T10:56:34.299Z,101564.44
2023-06-04T10:59:01.408Z,101566.44
2023-06-04T11:01:28.729Z,101561.25
2023-06-04T11:03:58.555Z,101567.41
2023-06-04T11:06:25.105Z,101563.91
2023-06-04T11:09:01.860Z,101555.88
2023-06-04T11:11:28.371Z,101557.59
2023-06-04T11:13:54.808Z,101555.88
2023-06-04T11:16:22.167Z,101552.69
2023-06-04T11:18:58.530Z,101550.19
2023-06-04T11:21:27.691Z,101544.59
2023-06-04T11:24:01.927Z,101546.97
2023-06-04T11:26:32.950Z,101547.34
2023-06-04T11:28:59.626Z,101552.25
2023-06-04T11:31:26.082Z,101550.00
2023-06-04T11:33:52.515Z,101548.84
2023-06-04T11:36:25.617Z,101552.81
2023-06-04T11:39:02.336Z,101538.94
2023-06-04T11:41:32.868Z,101544.47
2023-06-04T11:44:03.954Z,101545.59
2023-06-04T11:46:33.675Z,101530.03
2023-06-04T11:49:00.803Z,101538.34
2023-06-04T11:51:28.928Z,101529.75
2023-06-04T11:53:55.906Z,101540.44
2023-06-04T11:56:25.742Z,101539.78
2023-06-04T11:58:53.672Z,101546.88
2023-06-04T12:01:20.604Z,101536.19
2023-06-04T12:03:47.837Z,101538.91
2023-06-04T12:06:19.412Z,101534.44
2023-06-04T12:08:54.224Z,101533.09
2023-06-04T12:11:26.131Z,101526.16
2023-06-04T12:13:52.960Z,101525.91
2023-06-04T12:16:19.543Z,101524.97
2023-06-04T12:18:46.343Z,101536.34
2023-06-04T12:21:22.800Z,101534.13
2023-06-04T12:23:49.341Z,101536.06
2023-06-04T12:26:22.829Z,101534.34
2023-06-04T12:29:02.478Z,101535.34
2023-06-04T12:31:29.412Z,101528.38
2023-06-04T12:33:56.125Z,101529.19
2023-06-04T12:36:22.678Z,101530.19
2023-06-04T12:38:49.564Z,101523.34
2023-06-04T12:41:17.171Z,101521.06
2023-06-04T12:43:43.845Z,101522.28
2023-06-04T12:46:11.332Z,101511.84
2023-06-04T12:48:37.984Z,101517.78
2023-06-04T12:51:04.484Z,101513.78
2023-06-04T12:53:30.856Z,101514.22
2023-06-04T12:55:58.662Z,101518.06
2023-06-04T12:58:25.441Z,101518.00
2023-06-04T13:00:52.061Z,101518.06
2023-06-04T13:03:18.641Z,101515.16
2023-06-04T13:05:45.318Z,101517.03
2023-06-04T13:08:12.032Z,101516.19
2023-06-04T13:10:38.548Z,101510.50
2023-06-04T13:13:05.103Z,101509.28
2023-06-04T13:15:31.652Z,101509.03
2023-06-04T13:17:58.202Z,101511.31
2023-06-04T13:20:24.769Z,101510.63
2023-06-04T13:22:51.213Z,101506.44
2023-06-04T13:25:17.744Z,101511.41
2023-06-04T13:27:46.189Z,101523.78
2023-06-04T13:30:16.112Z,101518.75
2023-06-04T13:32:42.745Z,101518.22
2023-06-04T13:35:09.788Z,101511.50
2023-06-04T13:37:36.453Z,101503.09
2023-06-04T13:40:03.513Z,101508.75
2023-06-04T13:42:30.439Z,101504.94
2023-06-04T13:44:57.227Z,101500.41
2023-06-04T13:47:23.744Z,101498.94
2023-06-04T13:49:50.141Z,101498.28
2023-06-04T13:52:16.841Z,101494.69
2023-06-04T13:54:44.116Z,101491.84
2023-06-04T13:57:11.057Z,101492.66
2023-06-04T13:59:37.857Z,101493.50
2023-06-04T14:02:04.903Z,101496.94
2023-06-04T14:04:31.736Z,101494.44
2023-06-04T14:06:58.602Z,101490.53
2023-06-04T14:09:25.626Z,101487.34
2023-06-04T14:11:52.180Z,101483.41
2023-06-04T14:14:18.754Z,101473.97
2023-06-04T14:16:49.118Z,101481.31
2023-06-04T14:19:15.960Z,101485.69
2023-06-04T14:21:46.209Z,101478.91
2023-06-04T14:24:12.785Z,101475.63
2023-06-04T14:26:39.171Z,101475.31
2023-06-04T14:29:06.128Z,101472.41
2023-06-04T14:31:32.735Z,101482.88
2023-06-04T14:33:59.287Z,101471.59
2023-06-04T14:36:26.073Z,101484.53
2023-06-04T14:38:52.574Z,101478.81
2023-06-04T14:41:19.503Z,101477.19
2023-06-04T14:43:46.403Z,101472.41
2023-06-04T14:46:13.257Z,101471.59
2023-06-04T14:48:39.928Z,101472.47
2023-06-04T14:51:06.535Z,101474.19
2023-06-04T14:53:33.300Z,101462.91
2023-06-04T14:55:59.792Z,101460.94
2023-06-04T14:58:26.262Z,101467.31
2023-06-04T15:00:52.765Z,101463.34
2023-06-04T15:03:19.404Z,101462.69
2023-06-04T15:05:46.326Z,101455.28
2023-06-04T15:08:12.871Z,101457.69
2023-06-04T15:10:39.659Z,101459.66
2023-06-04T15:13:07.013Z,101451.84
2023-06-04T15:15:33.516Z,101453.47
2023-06-04T15:18:00.282Z,101449.72
2023-06-04T15:20:27.281Z,101445.94
2023-06-04T15:22:55.474Z,101443.72
2023-06-04T15:25:22.100Z,101442.59
2023-06-04T15:27:48.678Z,101441.25
2023-06-04T15:30:15.449Z,101445.84
2023-06-04T15:32:42.099Z,101448.91
2023-06-04T15:35:09.187Z,101450.56
2023-06-04T15:37:35.936Z,101448.91
2023-06-04T15:40:03.043Z,101444.94
2023-06-04T15:42:30.001Z,101443.69
2023-06-04T15:44:56.748Z,101443.34
2023-06-04T15:47:23.746Z,101446.88
2023-06-04T15:49:50.503Z,101448.09
2023-06-04T15:52:17.254Z,101450.34
2023-06-04T15:54:46.930Z,101448.41
2023-06-04T15:57:14.630Z,101437.94
2023-06-04T15:59:42.063Z,101439.31
2023-06-04T16:02:09.248Z,101440.03
2023-06-04T16:04:36.100Z,101440.38
2023-06-04T16:07:03.363Z,101433.09
2023-06-04T16:09:30.384Z,101432.81
2023-06-04T16:11:57.011Z,101431.81
2023-06-04T16:14:23.715Z,101428.25
2023-06-04T16:16:51.918Z,101426.91
2023-06-04T16:19:18.656Z,101420.50
2023-06-04T16:21:45.234Z,101419.63
2023-06-04T16:24:11.860Z,101418.56
2023-06-04T16:26:38.446Z,101414.47
2023-06-04T16:29:05.329Z,101411.00
2023-06-04T16:31:31.999Z,101412.69
2023-06-04T16:33:58.624Z,101406.56
2023-06-04T16:36:25.493Z,101403.16
2023-06-04T16:38:52.009Z,101404.50
2023-06-04T16:41:18.449Z,101405.88
2023-06-04T16:43:45.334Z,101405.66
2023-06-04T16:46:11.862Z,101405.94
2023-06-04T16:48:39.577Z,101411.28
2023-06-04T16:51:06.661Z,101405.69
2023-06-04T16:53:33.372Z,101398.53
2023-06-04T16:55:59.907Z,101403.63
2023-06-04T16:58:26.686Z,101406.03
2023-06-04T17:00:53.623Z,101410.06
2023-06-04T17:03:20.751Z,101405.47
2023-06-04T17:05:47.718Z,101406.16
2023-06-04T17:08:14.438Z,101406.97
2023-06-04T17:10:41.232Z,101399.44
2023-06-04T17:13:07.974Z,101403.53
2023-06-04T17:15:34.533Z,101406.78
2023-06-04T17:18:01.240Z,101406.78
2023-06-04T17:20:29.520Z,101408.81
2023-06-04T17:22:59.561Z,101403.44
2023-06-04T17:25:26.484Z,101410.38
2023-06-04T17:27:53.054Z,101412.00
2023-06-04T17:30:20.536Z,101408.28
2023-06-04T17:32:48.040Z,101409.09
2023-06-04T17:35:15.598Z,101408.41
2023-06-04T17:37:42.139Z,101410.66
2023-06-04T17:40:09.212Z,101410.09
2023-06-04T17:42:35.959Z,101420.13
2023-06-04T17:45:03.382Z,101419.66
2023-06-04T17:47:29.897Z,101417.25
2023-06-04T17:49:56.483Z,101422.88
2023-06-04T17:52:23.256Z,101427.84
2023-06-04T17:54:50.006Z,101420.91
2023-06-04T17:57:17.916Z,101421.97
2023-06-04T17:59:44.659Z,101427.91
2023-06-04T18:02:11.405Z,101423.84
2023-06-04T18:04:41.009Z,101428.50
2023-06-04T18:07:07.902Z,101421.22
2023-06-04T18:09:34.589Z,101418.09
2023-06-04T18:12:01.083Z,101415.25
2023-06-04T18:14:27.636Z,101425.00
2023-06-04T18:16:54.226Z,101433.09
2023-06-04T18:19:22.254Z,101429.25
2023-06-04T18:21:48.882Z,101427.25
2023-06-04T18:24:15.638Z,101426.25
2023-06-04T18:26:42.383Z,101419.59
2023-06-04T18:29:08.846Z,101427.59
2023-06-04T18:31:35.607Z,101427.78
2023-06-04T18:34:02.225Z,101435.81
2023-06-04T18:36:31.782Z,101431.72
2023-06-04T18:39:01.905Z,101429.47
2023-06-04T18:41:28.457Z,101432.41
2023-06-04T18:43:54.879Z,101433.56
2023-06-04T18:46:21.358Z,101434.81
2023-06-04T18:48:47.868Z,101442.97
2023-06-04T18:51:17.161Z,101439.78
2023-06-04T18:53:43.773Z,101443.69
2023-06-04T18:56:10.433Z,101443.06
2023-06-04T18:58:36.935Z,101452.94
2023-06-04T19:01:03.445Z,101445.31
2023-06-04T19:03:29.993Z,101446.50
2023-06-04T19:05:56.468Z,101452.06
2023-06-04T19:08:22.998Z,101448.94
2023-06-04T19:10:49.450Z,101462.97
2023-06-04T19:13:15.949Z,101464.06
2023-06-04T19:15:42.664Z,101462.69
2023-06-04T19:18:10.782Z,101471.56
2023-06-04T19:20:37.576Z,101461.44
2023-06-04T19:23:04.464Z,101466.88
2023-06-04T19:25:31.003Z,101470.50
2023-06-04T19:27:57.635Z,101470.75
2023-06-04T19:30:24.074Z,101471.91
2023-06-04T19:32:54.102Z,101467.00
2023-06-04T19:35:20.880Z,101474.13
2023-06-04T19:37:47.352Z,101469.03
2023-06-04T19:40:16.223Z,101471.78
2023-06-04T19:42:42.688Z,101474.50
2023-06-04T19:45:09.817Z,101486.84
2023-06-04T19:47:37.432Z,101488.81
2023-06-04T19:50:04.591Z,101494.00
2023-06-04T19:52:31.388Z,101495.06
2023-06-04T19:54:58.017Z,101494.28
2023-06-04T19:57:24.534Z,101500.44
2023-06-04T19:59:51.206Z,101497.06
2023-06-04T20:02:17.803Z,101503.22
2023-06-04T20:04:44.403Z,101505.94
2023-06-04T20:07:11.203Z,101504.31
2023-06-04T20:09:37.606Z,101508.69
2023-06-04T20:12:04.300Z,101507.06
2023-06-04T20:14:31.100Z,101516.59
2023-06-04T20:16:57.467Z,101511.47
2023-06-04T20:19:24.067Z,101514.09
2023-06-04T20:21:50.860Z,101517.53
2023-06-04T20:24:18.711Z,101511.66
2023-06-04T20:26:46.666Z,101510.00
2023-06-04T20:29:13.178Z,101513.50
2023-06-04T20:31:39.577Z,101521.28
2023-06-04T20:34:07.289Z,101516.19
2023-06-04T20:36:33.835Z,101517.97
2023-06-04T20:39:00.249Z,101524.03
2023-06-04T20:41:26.808Z,101521.47
2023-06-04T20:43:55.311Z,101525.00
2023-06-04T20:46:22.644Z,101524.16
2023-06-04T20:48:52.401Z,101523.31
2023-06-04T20:51:21.002Z,101527.66
2023-06-04T20:53:48.563Z,101525.97
2023-06-04T20:56:15.709Z,101527.72
2023-06-04T20:58:42.773Z,101532.06
2023-06-04T21:01:09.620Z,101532.06
2023-06-04T21:03:36.301Z,101529.50
2023-06-04T21:06:02.945Z,101531.22
2023-06-04T21:08:30.884Z,101530.34
2023-06-04T21:10:57.743Z,101531.22
2023-06-04T21:13:24.329Z,101531.22
2023-06-04T21:15:50.788Z,101532.94
2023-06-04T21:18:17.206Z,101533.81
2023-06-04T21:20:43.733Z,101539.81
2023-06-04T21:23:11.022Z,101529.53
2023-06-04T21:25:37.979Z,101538.97
2023-06-04T21:28:04.701Z,101535.56
2023-06-04T21:30:31.475Z,101544.13
2023-06-04T21:32:58.053Z,101545.00
2023-06-04T21:35:24.633Z,101544.13
2023-06-04T21:37:51.248Z,101540.69
2023-06-04T21:40:17.752Z,101550.97
2023-06-04T21:42:44.476Z,101545.81
2023-06-04T21:45:12.113Z,101549.25
2023-06-04T21:47:39.571Z,101550.09
2023-06-04T21:50:06.160Z,101550.09
2023-06-04T21:52:32.708Z,101544.94
2023-06-04T21:54:59.763Z,101553.47
2023-06-04T21:57:26.308Z,101550.03
2023-06-04T21:59:52.900Z,101549.13
2023-06-04T22:02:19.406Z,101549.94
2023-06-04T22:04:46.130Z,101546.50
2023-06-04T22:07:12.789Z,101549.88
2023-06-04T22:09:39.268Z,101550.75
2023-06-04T22:12:06.690Z,101553.25
2023-06-04T22:14:35.419Z,101548.94
2023-06-04T22:17:01.853Z,101547.22
2023-06-04T22:19:28.310Z,101546.34
2023-06-04T22:21:54.700Z,101553.16
2023-06-04T22:24:21.141Z,101543.72
2023-06-04T22:26:47.869Z,101542.81
2023-06-04T22:29:14.305Z,101550.53
2023-06-04T22:31:40.902Z,101549.59
2023-06-04T22:34:07.400Z,101549.59
2023-06-04T22:36:34.221Z,101545.28
2023-06-04T22:39:00.672Z,101542.69
2023-06-04T22:41:27.167Z,101552.91
2023-06-04T22:43:53.659Z,101547.75
2023-06-04T22:46:20.238Z,101543.44
2023-06-04T22:48:47.081Z,101546.81
2023-06-04T22:51:13.530Z,101543.38
2023-06-04T22:53:40.102Z,101539.91
2023-06-04T22:56:06.743Z,101546.81
2023-06-04T22:58:34.659Z,101546.75
2023-06-04T23:01:01.445Z,101546.78
2023-06-04T23:03:28.337Z,101551.84
2023-06-04T23:05:55.384Z,101544.94
2023-06-04T23:08:21.937Z,101544.91
2023-06-04T23:10:48.379Z,101561.03
2023-06-04T23:13:16.257Z,101549.97
2023-06-04T23:15:42.780Z,101552.56
2023-06-04T23:18:09.395Z,101552.56
2023-06-04T23:20:36.584Z,101561.88
2023-06-04T23:23:03.132Z,101560.09
2023-06-04T23:25:29.639Z,101568.63
2023-06-04T23:27:56.166Z,101560.88
2023-06-04T23:30:22.812Z,101564.28
2023-06-04T23:32:49.310Z,101569.44
2023-06-04T23:35:16.108Z,101567.69
2023-06-04T23:37:42.559Z,101568.59
2023-06-04T23:40:09.554Z,101564.34
2023-06-04T23:42:38.045Z,101564.34
2023-06-04T23:45:04.796Z,101571.13
2023-06-04T23:47:31.321Z,101561.69
2023-06-04T23:49:58.225Z,101561.69
2023-06-04T23:52:25.397Z,101564.19
2023-06-04T23:54:52.230Z,101559.88
2023-06-04T23:57:18.715Z,101565.84
2023-06-04T23:59:45.484Z,101559.78
